sensor_id;sensor_type;location;lat;lon;timestamp;P1;durP1;ratioP1;P2;durP2;ratioP2
46000;SDS011;72226;48.272;11.180;2024-02-23T00:00:22;0.20;;;0.03;;
46000;SDS011;72226;48.272;11.180;2024-02-23T00:02:48;0.52;;;0.30;;
46000;SDS011;72226;48.272;11.180;2024-02-23T00:05:13;0.00;;;0.00;;
46000;SDS011;72226;48.272;11.180;2024-02-23T00:07:38;0.00;;;0.00;;
46000;SDS011;72226;48.272;11.180;2024-02-23T00:10:03;0.00;;;0.00;;
46000;SDS011;72226;48.272;11.180;2024-02-23T00:12:29;0.00;;;0.00;;
46000;SDS011;72226;48.272;11.180;2024-02-23T00:14:54;0.10;;;0.10;;
46000;SDS011;72226;48.272;11.180;2024-02-23T00:17:19;0.43;;;0.10;;
46000;SDS011;72226;48.272;11.180;2024-02-23T00:19:45;0.13;;;0.10;;
46000;SDS011;72226;48.272;11.180;2024-02-23T00:22:10;0.10;;;0.00;;
46000;SDS011;72226;48.272;11.180;2024-02-23T00:24:36;0.45;;;0.20;;
46000;SDS011;72226;48.272;11.180;2024-02-23T00:27:01;0.05;;;0.05;;
46000;SDS011;72226;48.272;11.180;2024-02-23T00:29:27;0.10;;;0.10;;
46000;SDS011;72226;48.272;11.180;2024-02-23T00:31:52;4.18;;;0.30;;
46000;SDS011;72226;48.272;11.180;2024-02-23T00:34:17;0.22;;;0.10;;
46000;SDS011;72226;48.272;11.180;2024-02-23T00:36:42;0.00;;;0.00;;
46000;SDS011;72226;48.272;11.180;2024-02-23T00:39:09;0.00;;;0.00;;
46000;SDS011;72226;48.272;11.180;2024-02-23T00:41:35;0.20;;;0.15;;
46000;SDS011;72226;48.272;11.180;2024-02-23T00:44:00;0.10;;;0.10;;
46000;SDS011;72226;48.272;11.180;2024-02-23T00:46:26;0.90;;;0.10;;
46000;SDS011;72226;48.272;11.180;2024-02-23T00:48:51;5.47;;;0.20;;
46000;SDS011;72226;48.272;11.180;2024-02-23T00:51:16;0.30;;;0.05;;
46000;SDS011;72226;48.272;11.180;2024-02-23T00:53:41;0.43;;;0.10;;
46000;SDS011;72226;48.272;11.180;2024-02-23T00:56:07;0.30;;;0.20;;
46000;SDS011;72226;48.272;11.180;2024-02-23T00:58:32;0.90;;;0.10;;
46000;SDS011;72226;48.272;11.180;2024-02-23T01:00:57;1.23;;;0.20;;
46000;SDS011;72226;48.272;11.180;2024-02-23T01:03:22;0.28;;;0.05;;
46000;SDS011;72226;48.272;11.180;2024-02-23T01:05:47;2.40;;;0.10;;
46000;SDS011;72226;48.272;11.180;2024-02-23T01:08:13;0.28;;;0.28;;
46000;SDS011;72226;48.272;11.180;2024-02-23T01:10:38;0.40;;;0.17;;
46000;SDS011;72226;48.272;11.180;2024-02-23T01:13:03;0.20;;;0.00;;
46000;SDS011;72226;48.272;11.180;2024-02-23T01:15:30;0.13;;;0.10;;
46000;SDS011;72226;48.272;11.180;2024-02-23T01:17:55;0.20;;;0.03;;
46000;SDS011;72226;48.272;11.180;2024-02-23T01:20:21;0.52;;;0.10;;
46000;SDS011;72226;48.272;11.180;2024-02-23T01:22:46;0.30;;;0.10;;
46000;SDS011;72226;48.272;11.180;2024-02-23T01:25:11;0.40;;;0.10;;
46000;SDS011;72226;48.272;11.180;2024-02-23T01:27:37;0.65;;;0.20;;
46000;SDS011;72226;48.272;11.180;2024-02-23T01:30:02;0.10;;;0.00;;
46000;SDS011;72226;48.272;11.180;2024-02-23T01:32:27;0.03;;;0.03;;
46000;SDS011;72226;48.272;11.180;2024-02-23T01:34:53;0.10;;;0.10;;
46000;SDS011;72226;48.272;11.180;2024-02-23T01:37:18;0.15;;;0.00;;
46000;SDS011;72226;48.272;11.180;2024-02-23T01:39:44;0.10;;;0.10;;
46000;SDS011;72226;48.272;11.180;2024-02-23T01:42:10;0.10;;;0.00;;
46000;SDS011;72226;48.272;11.180;2024-02-23T01:44:35;0.13;;;0.10;;
46000;SDS011;72226;48.272;11.180;2024-02-23T01:47:00;0.10;;;0.10;;
46000;SDS011;72226;48.272;11.180;2024-02-23T01:49:25;0.45;;;0.08;;
46000;SDS011;72226;48.272;11.180;2024-02-23T01:51:55;0.00;;;0.00;;
46000;SDS011;72226;48.272;11.180;2024-02-23T01:54:21;0.00;;;0.00;;
46000;SDS011;72226;48.272;11.180;2024-02-23T01:56:46;0.22;;;0.08;;
46000;SDS011;72226;48.272;11.180;2024-02-23T01:59:12;0.00;;;0.00;;
46000;SDS011;72226;48.272;11.180;2024-02-23T02:01:37;0.00;;;0.00;;
46000;SDS011;72226;48.272;11.180;2024-02-23T02:04:02;0.10;;;0.00;;
46000;SDS011;72226;48.272;11.180;2024-02-23T02:06:27;0.32;;;0.10;;
46000;SDS011;72226;48.272;11.180;2024-02-23T02:08:53;0.57;;;0.10;;
46000;SDS011;72226;48.272;11.180;2024-02-23T02:11:18;1.00;;;0.00;;
46000;SDS011;72226;48.272;11.180;2024-02-23T02:13:44;0.00;;;0.00;;
46000;SDS011;72226;48.272;11.180;2024-02-23T02:16:09;0.00;;;0.00;;
46000;SDS011;72226;48.272;11.180;2024-02-23T02:18:36;0.10;;;0.10;;
46000;SDS011;72226;48.272;11.180;2024-02-23T02:21:01;0.00;;;0.00;;
46000;SDS011;72226;48.272;11.180;2024-02-23T02:23:26;1.77;;;0.13;;
46000;SDS011;72226;48.272;11.180;2024-02-23T02:25:52;0.00;;;0.00;;
46000;SDS011;72226;48.272;11.180;2024-02-23T02:28:17;1.88;;;0.52;;
46000;SDS011;72226;48.272;11.180;2024-02-23T02:30:42;0.80;;;0.10;;
46000;SDS011;72226;48.272;11.180;2024-02-23T02:33:08;0.20;;;0.03;;
46000;SDS011;72226;48.272;11.180;2024-02-23T02:35:33;0.43;;;0.10;;
46000;SDS011;72226;48.272;11.180;2024-02-23T02:37:58;0.00;;;0.00;;
46000;SDS011;72226;48.272;11.180;2024-02-23T02:40:24;0.00;;;0.00;;
46000;SDS011;72226;48.272;11.180;2024-02-23T02:42:49;0.00;;;0.00;;
46000;SDS011;72226;48.272;11.180;2024-02-23T02:45:14;0.00;;;0.00;;
46000;SDS011;72226;48.272;11.180;2024-02-23T02:47:39;0.80;;;0.00;;
46000;SDS011;72226;48.272;11.180;2024-02-23T02:50:05;0.20;;;0.10;;
46000;SDS011;72226;48.272;11.180;2024-02-23T02:52:31;0.10;;;0.00;;
46000;SDS011;72226;48.272;11.180;2024-02-23T02:54:57;0.10;;;0.00;;
46000;SDS011;72226;48.272;11.180;2024-02-23T02:57:22;0.10;;;0.00;;
46000;SDS011;72226;48.272;11.180;2024-02-23T02:59:47;0.10;;;0.00;;
46000;SDS011;72226;48.272;11.180;2024-02-23T03:02:15;0.00;;;0.00;;
46000;SDS011;72226;48.272;11.180;2024-02-23T03:04:46;0.40;;;0.10;;
46000;SDS011;72226;48.272;11.180;2024-02-23T03:07:11;0.05;;;0.00;;
46000;SDS011;72226;48.272;11.180;2024-02-23T03:09:36;0.00;;;0.00;;
46000;SDS011;72226;48.272;11.180;2024-02-23T03:12:02;0.15;;;0.10;;
46000;SDS011;72226;48.272;11.180;2024-02-23T03:14:27;0.10;;;0.10;;
46000;SDS011;72226;48.272;11.180;2024-02-23T03:16:52;0.00;;;0.00;;
46000;SDS011;72226;48.272;11.180;2024-02-23T03:19:17;0.00;;;0.00;;
46000;SDS011;72226;48.272;11.180;2024-02-23T03:21:47;0.40;;;0.20;;
46000;SDS011;72226;48.272;11.180;2024-02-23T03:24:12;0.00;;;0.00;;
46000;SDS011;72226;48.272;11.180;2024-02-23T03:26:37;0.30;;;0.20;;
46000;SDS011;72226;48.272;11.180;2024-02-23T03:29:02;0.50;;;0.10;;
46000;SDS011;72226;48.272;11.180;2024-02-23T03:31:28;1.38;;;0.30;;
46000;SDS011;72226;48.272;11.180;2024-02-23T03:33:53;0.25;;;0.10;;
46000;SDS011;72226;48.272;11.180;2024-02-23T03:36:19;0.05;;;0.05;;
46000;SDS011;72226;48.272;11.180;2024-02-23T03:38:44;0.05;;;0.03;;
46000;SDS011;72226;48.272;11.180;2024-02-23T03:41:09;2.15;;;0.20;;
46000;SDS011;72226;48.272;11.180;2024-02-23T03:43:34;0.28;;;0.00;;
46000;SDS011;72226;48.272;11.180;2024-02-23T03:46:00;0.03;;;0.00;;
46000;SDS011;72226;48.272;11.180;2024-02-23T03:48:25;0.10;;;0.03;;
46000;SDS011;72226;48.272;11.180;2024-02-23T03:50:50;0.00;;;0.00;;
46000;SDS011;72226;48.272;11.180;2024-02-23T03:53:15;0.15;;;0.00;;
46000;SDS011;72226;48.272;11.180;2024-02-23T03:55:40;0.00;;;0.00;;
46000;SDS011;72226;48.272;11.180;2024-02-23T03:58:06;1.92;;;0.10;;
46000;SDS011;72226;48.272;11.180;2024-02-23T04:00:31;0.00;;;0.00;;
46000;SDS011;72226;48.272;11.180;2024-02-23T04:02:56;0.15;;;0.00;;
46000;SDS011;72226;48.272;11.180;2024-02-23T04:05:21;0.00;;;0.00;;
46000;SDS011;72226;48.272;11.180;2024-02-23T04:07:47;0.08;;;0.00;;
46000;SDS011;72226;48.272;11.180;2024-02-23T04:10:12;0.00;;;0.00;;
46000;SDS011;72226;48.272;11.180;2024-02-23T04:12:41;0.35;;;0.00;;
46000;SDS011;72226;48.272;11.180;2024-02-23T04:15:06;0.40;;;0.00;;
46000;SDS011;72226;48.272;11.180;2024-02-23T04:17:32;0.55;;;0.13;;
46000;SDS011;72226;48.272;11.180;2024-02-23T04:19:57;0.03;;;0.00;;
46000;SDS011;72226;48.272;11.180;2024-02-23T04:22:24;0.00;;;0.00;;
46000;SDS011;72226;48.272;11.180;2024-02-23T04:24:49;0.45;;;0.00;;
46000;SDS011;72226;48.272;11.180;2024-02-23T04:27:14;0.32;;;0.10;;
46000;SDS011;72226;48.272;11.180;2024-02-23T04:29:39;0.22;;;0.00;;
46000;SDS011;72226;48.272;11.180;2024-02-23T04:32:05;0.00;;;0.00;;
46000;SDS011;72226;48.272;11.180;2024-02-23T04:34:30;0.00;;;0.00;;
46000;SDS011;72226;48.272;11.180;2024-02-23T04:36:55;0.00;;;0.00;;
46000;SDS011;72226;48.272;11.180;2024-02-23T04:39:21;0.20;;;0.00;;
46000;SDS011;72226;48.272;11.180;2024-02-23T04:41:46;0.08;;;0.00;;
46000;SDS011;72226;48.272;11.180;2024-02-23T04:44:11;0.30;;;0.20;;
46000;SDS011;72226;48.272;11.180;2024-02-23T04:46:36;0.00;;;0.00;;
46000;SDS011;72226;48.272;11.180;2024-02-23T04:49:02;1.02;;;0.10;;
46000;SDS011;72226;48.272;11.180;2024-02-23T04:51:27;2.03;;;0.10;;
46000;SDS011;72226;48.272;11.180;2024-02-23T04:53:52;0.30;;;0.13;;
46000;SDS011;72226;48.272;11.180;2024-02-23T04:56:17;0.55;;;0.25;;
46000;SDS011;72226;48.272;11.180;2024-02-23T04:58:43;0.10;;;0.10;;
46000;SDS011;72226;48.272;11.180;2024-02-23T05:01:08;0.00;;;0.00;;
46000;SDS011;72226;48.272;11.180;2024-02-23T05:03:34;1.35;;;0.10;;
46000;SDS011;72226;48.272;11.180;2024-02-23T05:05:59;0.35;;;0.15;;
46000;SDS011;72226;48.272;11.180;2024-02-23T05:08:24;0.43;;;0.10;;
46000;SDS011;72226;48.272;11.180;2024-02-23T05:10:50;0.10;;;0.00;;
46000;SDS011;72226;48.272;11.180;2024-02-23T05:13:15;0.00;;;0.00;;
46000;SDS011;72226;48.272;11.180;2024-02-23T05:15:41;0.45;;;0.20;;
46000;SDS011;72226;48.272;11.180;2024-02-23T05:18:06;4.05;;;0.22;;
46000;SDS011;72226;48.272;11.180;2024-02-23T05:20:31;0.10;;;0.10;;
46000;SDS011;72226;48.272;11.180;2024-02-23T05:22:57;1.02;;;0.10;;
46000;SDS011;72226;48.272;11.180;2024-02-23T05:25:22;0.20;;;0.10;;
46000;SDS011;72226;48.272;11.180;2024-02-23T05:27:47;0.20;;;0.00;;
46000;SDS011;72226;48.272;11.180;2024-02-23T05:30:12;0.80;;;0.00;;
46000;SDS011;72226;48.272;11.180;2024-02-23T05:32:38;0.15;;;0.00;;
46000;SDS011;72226;48.272;11.180;2024-02-23T05:35:03;0.00;;;0.00;;
46000;SDS011;72226;48.272;11.180;2024-02-23T05:37:29;0.52;;;0.10;;
46000;SDS011;72226;48.272;11.180;2024-02-23T05:39:54;1.17;;;0.03;;
46000;SDS011;72226;48.272;11.180;2024-02-23T05:42:19;2.38;;;0.10;;
46000;SDS011;72226;48.272;11.180;2024-02-23T05:44:46;0.10;;;0.03;;
46000;SDS011;72226;48.272;11.180;2024-02-23T05:47:13;0.10;;;0.10;;
46000;SDS011;72226;48.272;11.180;2024-02-23T05:49:39;0.40;;;0.20;;
46000;SDS011;72226;48.272;11.180;2024-02-23T05:52:04;0.10;;;0.10;;
46000;SDS011;72226;48.272;11.180;2024-02-23T05:54:29;0.30;;;0.20;;
46000;SDS011;72226;48.272;11.180;2024-02-23T05:56:54;0.40;;;0.20;;
46000;SDS011;72226;48.272;11.180;2024-02-23T05:59:20;0.30;;;0.10;;
46000;SDS011;72226;48.272;11.180;2024-02-23T06:01:45;0.10;;;0.10;;
46000;SDS011;72226;48.272;11.180;2024-02-23T06:04:10;0.47;;;0.30;;
46000;SDS011;72226;48.272;11.180;2024-02-23T06:06:35;0.10;;;0.10;;
46000;SDS011;72226;48.272;11.180;2024-02-23T06:09:01;0.52;;;0.28;;
46000;SDS011;72226;48.272;11.180;2024-02-23T06:11:27;1.27;;;0.28;;
46000;SDS011;72226;48.272;11.180;2024-02-23T06:13:53;0.15;;;0.13;;
46000;SDS011;72226;48.272;11.180;2024-02-23T06:16:21;0.20;;;0.10;;
46000;SDS011;72226;48.272;11.180;2024-02-23T06:18:46;1.02;;;0.43;;
46000;SDS011;72226;48.272;11.180;2024-02-23T06:21:14;0.28;;;0.10;;
46000;SDS011;72226;48.272;11.180;2024-02-23T06:23:40;0.75;;;0.30;;
46000;SDS011;72226;48.272;11.180;2024-02-23T06:26:06;0.13;;;0.10;;
46000;SDS011;72226;48.272;11.180;2024-02-23T06:28:31;0.20;;;0.20;;
46000;SDS011;72226;48.272;11.180;2024-02-23T06:30:56;1.30;;;0.20;;
46000;SDS011;72226;48.272;11.180;2024-02-23T06:33:21;0.40;;;0.20;;
46000;SDS011;72226;48.272;11.180;2024-02-23T06:35:46;0.80;;;0.47;;
46000;SDS011;72226;48.272;11.180;2024-02-23T06:38:12;0.10;;;0.10;;
46000;SDS011;72226;48.272;11.180;2024-02-23T06:40:37;0.38;;;0.20;;
46000;SDS011;72226;48.272;11.180;2024-02-23T06:43:02;2.22;;;0.63;;
46000;SDS011;72226;48.272;11.180;2024-02-23T06:45:27;0.45;;;0.10;;
46000;SDS011;72226;48.272;11.180;2024-02-23T06:47:53;0.10;;;0.10;;
46000;SDS011;72226;48.272;11.180;2024-02-23T06:50:18;1.83;;;0.15;;
46000;SDS011;72226;48.272;11.180;2024-02-23T06:52:43;0.90;;;0.50;;
46000;SDS011;72226;48.272;11.180;2024-02-23T06:55:08;3.25;;;0.40;;
46000;SDS011;72226;48.272;11.180;2024-02-23T06:57:35;0.20;;;0.17;;
46000;SDS011;72226;48.272;11.180;2024-02-23T07:00:01;2.42;;;0.60;;
46000;SDS011;72226;48.272;11.180;2024-02-23T07:02:27;0.82;;;0.63;;
46000;SDS011;72226;48.272;11.180;2024-02-23T07:04:52;1.13;;;0.60;;
46000;SDS011;72226;48.272;11.180;2024-02-23T07:07:19;0.80;;;0.43;;
46000;SDS011;72226;48.272;11.180;2024-02-23T07:09:44;1.50;;;0.85;;
46000;SDS011;72226;48.272;11.180;2024-02-23T07:12:10;0.40;;;0.22;;
46000;SDS011;72226;48.272;11.180;2024-02-23T07:14:38;0.80;;;0.50;;
46000;SDS011;72226;48.272;11.180;2024-02-23T07:17:03;0.50;;;0.30;;
46000;SDS011;72226;48.272;11.180;2024-02-23T07:19:29;2.10;;;0.52;;
46000;SDS011;72226;48.272;11.180;2024-02-23T07:21:54;0.17;;;0.10;;
46000;SDS011;72226;48.272;11.180;2024-02-23T07:24:19;1.10;;;0.10;;
46000;SDS011;72226;48.272;11.180;2024-02-23T07:26:45;1.08;;;0.30;;
46000;SDS011;72226;48.272;11.180;2024-02-23T07:29:10;0.65;;;0.30;;
46000;SDS011;72226;48.272;11.180;2024-02-23T07:31:35;0.55;;;0.20;;
46000;SDS011;72226;48.272;11.180;2024-02-23T07:34:00;0.20;;;0.20;;
46000;SDS011;72226;48.272;11.180;2024-02-23T07:36:27;0.22;;;0.22;;
46000;SDS011;72226;48.272;11.180;2024-02-23T07:38:52;0.10;;;0.10;;
46000;SDS011;72226;48.272;11.180;2024-02-23T07:41:17;4.43;;;0.68;;
46000;SDS011;72226;48.272;11.180;2024-02-23T07:43:43;0.90;;;0.60;;
46000;SDS011;72226;48.272;11.180;2024-02-23T07:46:08;1.35;;;0.47;;
46000;SDS011;72226;48.272;11.180;2024-02-23T07:48:36;0.95;;;0.45;;
46000;SDS011;72226;48.272;11.180;2024-02-23T07:51:02;3.00;;;0.40;;
46000;SDS011;72226;48.272;11.180;2024-02-23T07:53:28;0.50;;;0.20;;
46000;SDS011;72226;48.272;11.180;2024-02-23T07:55:53;0.32;;;0.10;;
46000;SDS011;72226;48.272;11.180;2024-02-23T07:58:18;0.85;;;0.30;;
46000;SDS011;72226;48.272;11.180;2024-02-23T08:00:44;1.30;;;0.63;;
46000;SDS011;72226;48.272;11.180;2024-02-23T08:03:09;1.10;;;0.30;;
46000;SDS011;72226;48.272;11.180;2024-02-23T08:05:35;2.00;;;0.82;;
46000;SDS011;72226;48.272;11.180;2024-02-23T08:08:02;1.00;;;0.57;;
46000;SDS011;72226;48.272;11.180;2024-02-23T08:10:27;2.60;;;0.50;;
46000;SDS011;72226;48.272;11.180;2024-02-23T08:12:53;1.60;;;0.30;;
46000;SDS011;72226;48.272;11.180;2024-02-23T08:15:18;0.73;;;0.63;;
46000;SDS011;72226;48.272;11.180;2024-02-23T08:17:43;0.85;;;0.57;;
46000;SDS011;72226;48.272;11.180;2024-02-23T08:20:08;1.48;;;0.47;;
46000;SDS011;72226;48.272;11.180;2024-02-23T08:22:34;0.80;;;0.30;;
46000;SDS011;72226;48.272;11.180;2024-02-23T08:24:59;0.77;;;0.40;;
46000;SDS011;72226;48.272;11.180;2024-02-23T08:27:24;2.88;;;0.25;;
46000;SDS011;72226;48.272;11.180;2024-02-23T08:29:50;3.15;;;0.43;;
46000;SDS011;72226;48.272;11.180;2024-02-23T08:32:15;2.30;;;0.65;;
46000;SDS011;72226;48.272;11.180;2024-02-23T08:34:40;0.22;;;0.22;;
46000;SDS011;72226;48.272;11.180;2024-02-23T08:37:05;1.63;;;0.28;;
46000;SDS011;72226;48.272;11.180;2024-02-23T08:39:30;3.10;;;1.05;;
46000;SDS011;72226;48.272;11.180;2024-02-23T08:41:56;1.73;;;0.77;;
46000;SDS011;72226;48.272;11.180;2024-02-23T08:44:21;1.52;;;0.50;;
46000;SDS011;72226;48.272;11.180;2024-02-23T08:46:46;0.45;;;0.38;;
46000;SDS011;72226;48.272;11.180;2024-02-23T08:49:13;1.40;;;0.28;;
46000;SDS011;72226;48.272;11.180;2024-02-23T08:51:38;0.65;;;0.38;;
46000;SDS011;72226;48.272;11.180;2024-02-23T08:54:03;1.45;;;0.55;;
46000;SDS011;72226;48.272;11.180;2024-02-23T08:56:30;0.52;;;0.22;;
46000;SDS011;72226;48.272;11.180;2024-02-23T08:58:56;5.05;;;0.80;;
46000;SDS011;72226;48.272;11.180;2024-02-23T09:01:21;3.88;;;0.80;;
46000;SDS011;72226;48.272;11.180;2024-02-23T09:03:47;4.57;;;1.25;;
46000;SDS011;72226;48.272;11.180;2024-02-23T09:06:12;5.97;;;1.80;;
46000;SDS011;72226;48.272;11.180;2024-02-23T09:08:37;7.03;;;1.42;;
46000;SDS011;72226;48.272;11.180;2024-02-23T09:11:03;5.13;;;2.13;;
46000;SDS011;72226;48.272;11.180;2024-02-23T09:13:28;4.20;;;1.55;;
46000;SDS011;72226;48.272;11.180;2024-02-23T09:15:55;5.80;;;2.00;;
46000;SDS011;72226;48.272;11.180;2024-02-23T09:18:20;3.00;;;1.60;;
46000;SDS011;72226;48.272;11.180;2024-02-23T09:20:45;2.58;;;1.20;;
46000;SDS011;72226;48.272;11.180;2024-02-23T09:23:11;4.43;;;0.88;;
46000;SDS011;72226;48.272;11.180;2024-02-23T09:25:37;1.27;;;0.25;;
46000;SDS011;72226;48.272;11.180;2024-02-23T09:28:02;0.93;;;0.40;;
46000;SDS011;72226;48.272;11.180;2024-02-23T09:30:27;1.85;;;0.40;;
46000;SDS011;72226;48.272;11.180;2024-02-23T09:32:53;1.67;;;0.40;;
46000;SDS011;72226;48.272;11.180;2024-02-23T09:35:19;1.20;;;0.50;;
46000;SDS011;72226;48.272;11.180;2024-02-23T09:37:44;0.68;;;0.20;;
46000;SDS011;72226;48.272;11.180;2024-02-23T09:40:10;0.38;;;0.15;;
46000;SDS011;72226;48.272;11.180;2024-02-23T09:42:35;1.75;;;0.20;;
46000;SDS011;72226;48.272;11.180;2024-02-23T09:45:03;1.48;;;0.45;;
46000;SDS011;72226;48.272;11.180;2024-02-23T09:47:30;3.33;;;0.90;;
46000;SDS011;72226;48.272;11.180;2024-02-23T09:49:56;3.75;;;0.73;;
46000;SDS011;72226;48.272;11.180;2024-02-23T09:52:21;1.08;;;0.47;;
46000;SDS011;72226;48.272;11.180;2024-02-23T09:54:47;0.35;;;0.20;;
46000;SDS011;72226;48.272;11.180;2024-02-23T09:57:13;8.93;;;0.75;;
46000;SDS011;72226;48.272;11.180;2024-02-23T09:59:39;2.53;;;0.80;;
46000;SDS011;72226;48.272;11.180;2024-02-23T10:02:06;2.00;;;0.77;;
46000;SDS011;72226;48.272;11.180;2024-02-23T10:04:33;1.48;;;0.70;;
46000;SDS011;72226;48.272;11.180;2024-02-23T10:06:58;1.88;;;0.90;;
46000;SDS011;72226;48.272;11.180;2024-02-23T10:09:23;1.92;;;1.10;;
46000;SDS011;72226;48.272;11.180;2024-02-23T10:11:52;3.13;;;0.95;;
46000;SDS011;72226;48.272;11.180;2024-02-23T10:14:18;2.05;;;1.00;;
46000;SDS011;72226;48.272;11.180;2024-02-23T10:16:43;2.22;;;0.80;;
46000;SDS011;72226;48.272;11.180;2024-02-23T10:19:08;1.42;;;0.45;;
46000;SDS011;72226;48.272;11.180;2024-02-23T10:21:34;2.55;;;0.73;;
46000;SDS011;72226;48.272;11.180;2024-02-23T10:23:59;2.03;;;0.22;;
46000;SDS011;72226;48.272;11.180;2024-02-23T10:26:26;3.10;;;0.55;;
46000;SDS011;72226;48.272;11.180;2024-02-23T10:28:51;0.95;;;0.32;;
46000;SDS011;72226;48.272;11.180;2024-02-23T10:31:16;1.00;;;0.40;;
46000;SDS011;72226;48.272;11.180;2024-02-23T10:33:42;1.10;;;0.60;;
46000;SDS011;72226;48.272;11.180;2024-02-23T10:36:09;3.78;;;0.43;;
46000;SDS011;72226;48.272;11.180;2024-02-23T10:38:37;1.58;;;0.35;;
46000;SDS011;72226;48.272;11.180;2024-02-23T10:41:04;0.80;;;0.30;;
46000;SDS011;72226;48.272;11.180;2024-02-23T10:43:30;1.70;;;0.57;;
46000;SDS011;72226;48.272;11.180;2024-02-23T10:45:58;2.10;;;0.75;;
46000;SDS011;72226;48.272;11.180;2024-02-23T10:48:24;1.98;;;0.35;;
46000;SDS011;72226;48.272;11.180;2024-02-23T10:50:50;2.55;;;0.63;;
46000;SDS011;72226;48.272;11.180;2024-02-23T10:53:15;2.70;;;0.70;;
46000;SDS011;72226;48.272;11.180;2024-02-23T10:55:41;1.13;;;0.40;;
46000;SDS011;72226;48.272;11.180;2024-02-23T10:58:09;3.35;;;0.35;;
46000;SDS011;72226;48.272;11.180;2024-02-23T11:00:36;1.67;;;0.75;;
46000;SDS011;72226;48.272;11.180;2024-02-23T11:03:01;3.70;;;0.68;;
46000;SDS011;72226;48.272;11.180;2024-02-23T11:05:28;2.47;;;0.80;;
46000;SDS011;72226;48.272;11.180;2024-02-23T11:07:55;0.95;;;0.50;;
46000;SDS011;72226;48.272;11.180;2024-02-23T11:10:22;1.88;;;0.90;;
46000;SDS011;72226;48.272;11.180;2024-02-23T11:12:56;1.20;;;0.45;;
46000;SDS011;72226;48.272;11.180;2024-02-23T11:15:28;1.55;;;0.47;;
46000;SDS011;72226;48.272;11.180;2024-02-23T11:17:54;1.95;;;1.00;;
46000;SDS011;72226;48.272;11.180;2024-02-23T11:20:19;3.80;;;1.20;;
46000;SDS011;72226;48.272;11.180;2024-02-23T11:22:48;1.05;;;0.40;;
46000;SDS011;72226;48.272;11.180;2024-02-23T11:25:16;4.20;;;1.20;;
46000;SDS011;72226;48.272;11.180;2024-02-23T11:27:42;2.38;;;0.77;;
46000;SDS011;72226;48.272;11.180;2024-02-23T11:30:08;2.08;;;0.95;;
46000;SDS011;72226;48.272;11.180;2024-02-23T11:32:39;2.85;;;0.95;;
46000;SDS011;72226;48.272;11.180;2024-02-23T11:35:06;1.70;;;0.88;;
46000;SDS011;72226;48.272;11.180;2024-02-23T11:37:31;3.25;;;0.98;;
46000;SDS011;72226;48.272;11.180;2024-02-23T11:39:57;2.03;;;0.60;;
46000;SDS011;72226;48.272;11.180;2024-02-23T11:42:23;3.95;;;0.50;;
46000;SDS011;72226;48.272;11.180;2024-02-23T11:44:49;2.25;;;0.50;;
46000;SDS011;72226;48.272;11.180;2024-02-23T11:47:15;0.40;;;0.20;;
46000;SDS011;72226;48.272;11.180;2024-02-23T11:49:42;0.30;;;0.20;;
46000;SDS011;72226;48.272;11.180;2024-02-23T11:52:07;2.10;;;0.30;;
46000;SDS011;72226;48.272;11.180;2024-02-23T11:54:32;0.15;;;0.15;;
46000;SDS011;72226;48.272;11.180;2024-02-23T11:56:57;1.85;;;0.50;;
46000;SDS011;72226;48.272;11.180;2024-02-23T11:59:23;0.47;;;0.30;;
46000;SDS011;72226;48.272;11.180;2024-02-23T12:01:50;0.90;;;0.10;;
46000;SDS011;72226;48.272;11.180;2024-02-23T12:04:16;1.23;;;0.40;;
46000;SDS011;72226;48.272;11.180;2024-02-23T12:06:44;0.30;;;0.30;;
46000;SDS011;72226;48.272;11.180;2024-02-23T12:09:10;1.75;;;0.40;;
46000;SDS011;72226;48.272;11.180;2024-02-23T12:11:37;1.80;;;0.40;;
46000;SDS011;72226;48.272;11.180;2024-02-23T12:14:02;0.75;;;0.25;;
46000;SDS011;72226;48.272;11.180;2024-02-23T12:16:32;2.38;;;0.40;;
46000;SDS011;72226;48.272;11.180;2024-02-23T12:18:57;3.20;;;0.35;;
46000;SDS011;72226;48.272;11.180;2024-02-23T12:21:23;0.85;;;0.30;;
46000;SDS011;72226;48.272;11.180;2024-02-23T12:23:49;0.60;;;0.30;;
46000;SDS011;72226;48.272;11.180;2024-02-23T12:26:15;0.50;;;0.38;;
46000;SDS011;72226;48.272;11.180;2024-02-23T12:28:41;0.93;;;0.38;;
46000;SDS011;72226;48.272;11.180;2024-02-23T12:31:06;3.85;;;1.20;;
46000;SDS011;72226;48.272;11.180;2024-02-23T12:33:32;0.35;;;0.28;;
46000;SDS011;72226;48.272;11.180;2024-02-23T12:35:59;1.17;;;0.47;;
46000;SDS011;72226;48.272;11.180;2024-02-23T12:38:24;0.80;;;0.30;;
46000;SDS011;72226;48.272;11.180;2024-02-23T12:40:50;0.22;;;0.10;;
46000;SDS011;72226;48.272;11.180;2024-02-23T12:43:15;2.13;;;0.20;;
46000;SDS011;72226;48.272;11.180;2024-02-23T12:45:40;0.65;;;0.35;;
46000;SDS011;72226;48.272;11.180;2024-02-23T12:48:06;0.68;;;0.32;;
46000;SDS011;72226;48.272;11.180;2024-02-23T12:50:31;1.10;;;0.50;;
46000;SDS011;72226;48.272;11.180;2024-02-23T12:52:56;0.43;;;0.40;;
46000;SDS011;72226;48.272;11.180;2024-02-23T12:55:22;0.60;;;0.10;;
46000;SDS011;72226;48.272;11.180;2024-02-23T12:57:48;0.63;;;0.20;;
46000;SDS011;72226;48.272;11.180;2024-02-23T13:00:13;0.40;;;0.20;;
46000;SDS011;72226;48.272;11.180;2024-02-23T13:02:39;0.28;;;0.15;;
46000;SDS011;72226;48.272;11.180;2024-02-23T13:05:04;0.30;;;0.30;;
46000;SDS011;72226;48.272;11.180;2024-02-23T13:07:29;2.42;;;0.50;;
46000;SDS011;72226;48.272;11.180;2024-02-23T13:09:54;0.22;;;0.13;;
46000;SDS011;72226;48.272;11.180;2024-02-23T13:12:20;1.65;;;0.30;;
46000;SDS011;72226;48.272;11.180;2024-02-23T13:14:45;0.20;;;0.20;;
46000;SDS011;72226;48.272;11.180;2024-02-23T13:17:10;0.63;;;0.20;;
46000;SDS011;72226;48.272;11.180;2024-02-23T13:19:35;1.13;;;0.30;;
46000;SDS011;72226;48.272;11.180;2024-02-23T13:22:00;1.77;;;0.10;;
46000;SDS011;72226;48.272;11.180;2024-02-23T13:24:26;0.20;;;0.10;;
46000;SDS011;72226;48.272;11.180;2024-02-23T13:26:51;0.70;;;0.22;;
46000;SDS011;72226;48.272;11.180;2024-02-23T13:29:16;1.40;;;0.20;;
46000;SDS011;72226;48.272;11.180;2024-02-23T13:31:42;1.67;;;0.22;;
46000;SDS011;72226;48.272;11.180;2024-02-23T13:34:07;0.45;;;0.20;;
46000;SDS011;72226;48.272;11.180;2024-02-23T13:36:32;0.73;;;0.08;;
46000;SDS011;72226;48.272;11.180;2024-02-23T13:38:57;0.45;;;0.10;;
46000;SDS011;72226;48.272;11.180;2024-02-23T13:41:23;0.28;;;0.10;;
46000;SDS011;72226;48.272;11.180;2024-02-23T13:43:48;0.47;;;0.40;;
46000;SDS011;72226;48.272;11.180;2024-02-23T13:46:13;0.22;;;0.05;;
46000;SDS011;72226;48.272;11.180;2024-02-23T13:48:38;0.65;;;0.28;;
46000;SDS011;72226;48.272;11.180;2024-02-23T13:51:04;0.10;;;0.00;;
46000;SDS011;72226;48.272;11.180;2024-02-23T13:53:30;0.00;;;0.00;;
46000;SDS011;72226;48.272;11.180;2024-02-23T13:55:56;1.50;;;0.10;;
46000;SDS011;72226;48.272;11.180;2024-02-23T13:58:21;0.85;;;0.20;;
46000;SDS011;72226;48.272;11.180;2024-02-23T14:00:47;1.50;;;0.10;;
46000;SDS011;72226;48.272;11.180;2024-02-23T14:03:15;2.85;;;0.25;;
46000;SDS011;72226;48.272;11.180;2024-02-23T14:05:41;0.10;;;0.10;;
46000;SDS011;72226;48.272;11.180;2024-02-23T14:08:09;1.60;;;0.30;;
46000;SDS011;72226;48.272;11.180;2024-02-23T14:10:35;1.65;;;0.20;;
46000;SDS011;72226;48.272;11.180;2024-02-23T14:13:00;0.20;;;0.15;;
46000;SDS011;72226;48.272;11.180;2024-02-23T14:15:25;0.52;;;0.10;;
46000;SDS011;72226;48.272;11.180;2024-02-23T14:17:52;0.75;;;0.10;;
46000;SDS011;72226;48.272;11.180;2024-02-23T14:20:17;0.30;;;0.10;;
46000;SDS011;72226;48.272;11.180;2024-02-23T14:22:42;0.52;;;0.13;;